Terminal Aerodrome Forecast
Issued by NWS

Home | Current Version | Previous Version | Text Only | Print | Product List | Glossary On
Versions: 1 2 3 4 5 6 7 8 9 10 11 12 13 14 15 16 17 18 19
000
FTUS46 KSEW 302000 AAA
TAFOLM
TAF AMD
KOLM 302000Z 3020/3118 00000KT 1/2SM FG VV002
     FM302200 VRB03KT 2SM BR BKN004
     FM310000 VRB03KT P6SM SKC
     FM310300 00000KT 3SM BR FEW003
     FM310600 00000KT 1/4SM FG VV001=

USA.gov is the U.S. government's official web portal to all federal, state and local government web resources and services.